Time;durP1;ratioP1;P1;durP2;ratioP2;P2;SDS_P1;SDS_P2;PMS_P1;PMS_P2;Temp;Humidity;BMP_temperature;BMP_pressure;BME280_temperature;BME280_humidity;BME280_pressure;Samples;Min_cycle;Max_cycle;Signal;HPM_P1;HPM_P2
2022/03/04 00:01:03;;;;;;;29.70;15.48;;;1.30;99.90;;;;;;4823600;29;20054;-84
2022/03/04 00:03:29;;;;;;;34.97;15.43;;;1.20;99.90;;;;;;4808616;29;20058;-85
2022/03/04 00:05:55;;;;;;;37.92;16.50;;;;;;;;;;4792939;29;20063;-87
2022/03/04 00:08:21;;;;;;;30.90;15.43;;;1.20;99.90;;;;;;4824242;29;20381;-85
2022/03/04 00:10:47;;;;;;;30.30;15.40;;;3.60;99.90;;;;;;4824127;29;20057;-84
2022/03/04 00:13:13;;;;;;;32.95;16.30;;;4.10;99.90;;;;;;4823829;29;20073;-85
2022/03/04 00:15:44;;;;;;;37.25;16.83;;;1.00;99.90;;;;;;4823748;29;20046;-85
2022/03/04 00:18:10;;;;;;;28.70;14.82;;;2.90;99.90;;;;;;4822561;29;20092;-84
2022/03/04 00:20:35;;;;;;;30.67;14.80;;;1.00;99.90;;;;;;4823764;29;20606;-84
2022/03/04 00:23:01;;;;;;;27.57;15.03;;;1.10;99.90;;;;;;4807346;29;20069;-85
2022/03/04 00:25:27;;;;;;;32.47;15.97;;;1.50;99.90;;;;;;4807991;29;20129;-85
2022/03/04 00:27:53;;;;;;;32.67;15.80;;;1.10;99.90;;;;;;4824349;29;20408;-85
2022/03/04 00:30:19;;;;;;;30.13;16.00;;;;;;;;;;4791434;29;20726;-85
2022/03/04 00:32:44;;;;;;;32.13;16.75;;;1.00;99.90;;;;;;4821258;29;20377;-85
2022/03/04 00:35:13;;;;;;;32.83;16.58;;;-0.70;99.90;;;;;;4807029;29;20080;-85
2022/03/04 00:37:39;;;;;;;27.08;15.05;;;1.00;99.90;;;;;;4823476;29;20101;-85
2022/03/04 00:40:06;;;;;;;29.52;15.30;;;2.10;99.90;;;;;;4823562;29;20085;-84
2022/03/04 00:42:32;;;;;;;33.13;15.52;;;;;;;;;;4824443;29;20110;-85
2022/03/04 00:44:57;;;;;;;34.83;17.00;;;0.90;99.90;;;;;;4823954;29;20093;-87
2022/03/04 00:47:23;;;;;;;29.58;14.55;;;1.50;99.90;;;;;;4807703;29;20090;-86
2022/03/04 00:49:49;;;;;;;32.53;14.80;;;0.80;99.90;;;;;;4822958;29;20051;-85
2022/03/04 00:52:14;;;;;;;34.23;15.87;;;-1.40;99.90;;;;;;4823396;29;20050;-86
2022/03/04 00:54:40;;;;;;;28.33;15.17;;;2.80;99.90;;;;;;4823783;29;20461;-85
2022/03/04 00:57:06;;;;;;;30.07;14.90;;;0.40;99.90;;;;;;4807249;29;20099;-86
2022/03/04 00:59:32;;;;;;;27.87;15.00;;;1.20;99.90;;;;;;4807471;29;20050;-85
2022/03/04 01:01:58;;;;;;;30.23;14.40;;;2.70;99.90;;;;;;4807071;29;20046;-85
2022/03/04 01:04:24;;;;;;;32.00;16.20;;;2.90;99.90;;;;;;4823345;29;20106;-85
2022/03/04 01:06:50;;;;;;;35.03;15.90;;;-1.60;99.90;;;;;;4807464;29;20053;-84
2022/03/04 01:09:15;;;;;;;30.65;15.57;;;-0.30;99.90;;;;;;4822039;29;20058;-86
2022/03/04 01:11:43;;;;;;;33.67;16.47;;;;;;;;;;4822900;29;20047;-86
2022/03/04 01:14:09;;;;;;;35.28;14.50;;;1.00;99.90;;;;;;4822590;29;20515;-85
2022/03/04 01:16:35;;;;;;;30.50;15.20;;;2.80;99.90;;;;;;4823425;29;20062;-85
2022/03/04 01:19:01;;;;;;;37.53;16.93;;;2.30;99.90;;;;;;4823505;29;20070;-87
2022/03/04 01:21:27;;;;;;;32.70;15.97;;;-0.10;99.90;;;;;;4823307;29;20076;-84
2022/03/04 01:23:53;;;;;;;41.60;16.63;;;0.10;99.90;;;;;;4821902;29;20046;-86
2022/03/04 01:26:19;;;;;;;37.07;17.30;;;-0.10;99.90;;;;;;4822746;29;20137;-84
2022/03/04 01:28:44;;;;;;;40.53;16.60;;;1.30;99.90;;;;;;4822657;29;20062;-85
2022/03/04 01:31:12;;;;;;;45.47;17.90;;;0.40;99.90;;;;;;4822089;29;20133;-85
2022/03/04 01:33:39;;;;;;;40.03;17.10;;;2.70;99.90;;;;;;4823141;29;20051;-87
2022/03/04 01:36:05;;;;;;;40.67;17.40;;;-0.20;99.90;;;;;;4822429;29;20085;-86
2022/03/04 01:38:31;;;;;;;39.47;17.40;;;0.30;99.90;;;;;;4822168;29;20053;-84
2022/03/04 01:40:57;;;;;;;41.83;16.77;;;2.60;99.90;;;;;;4822776;29;20046;-85
2022/03/04 01:43:23;;;;;;;42.67;19.07;;;;;;;;;;4822478;29;20140;-85
2022/03/04 01:45:49;;;;;;;35.73;18.40;;;0.40;99.90;;;;;;4822365;29;20082;-86
2022/03/04 01:48:18;;;;;;;38.83;17.03;;;-0.80;99.90;;;;;;4822471;29;20504;-86
2022/03/04 01:50:50;;;;;;;74.67;19.40;;;3.00;99.90;;;;;;4822494;29;20046;-85
2022/03/04 01:53:17;;;;;;;48.90;19.33;;;0.30;99.90;;;;;;4822301;29;20129;-84
2022/03/04 01:55:43;;;;;;;54.05;19.02;;;0.10;99.90;;;;;;4821491;29;20164;-85
2022/03/04 01:58:09;;;;;;;43.80;18.67;;;1.60;99.90;;;;;;4822694;29;20133;-86
2022/03/04 02:00:35;;;;;;;54.20;19.23;;;1.10;99.90;;;;;;4821489;29;20061;-85
2022/03/04 02:03:02;;;;;;;41.60;19.50;;;;;;;;;;4806716;29;20069;-85
2022/03/04 02:05:28;;;;;;;68.97;20.70;;;0.40;99.90;;;;;;4822527;29;20061;-85
2022/03/04 02:07:54;;;;;;;43.33;20.00;;;2.10;99.90;;;;;;4823030;29;20322;-85
2022/03/04 02:10:20;;;;;;;44.93;20.10;;;0.00;99.90;;;;;;4806117;29;20054;-87
2022/03/04 02:12:45;;;;;;;75.77;22.33;;;2.30;99.90;;;;;;4823115;29;20381;-85
2022/03/04 02:15:12;;;;;;;118.30;23.60;;;0.40;99.90;;;;;;4822650;29;20068;-85
2022/03/04 02:17:37;;;;;;;48.47;21.23;;;0.70;99.90;;;;;;4821109;29;20062;-85
2022/03/04 02:20:04;;;;;;;54.87;21.80;;;-0.90;99.90;;;;;;4806350;29;20053;-85
2022/03/04 02:22:33;;;;;;;72.55;21.67;;;0.40;99.90;;;;;;4822328;29;20057;-85
2022/03/04 02:25:00;;;;;;;73.20;22.50;;;0.20;99.90;;;;;;4821721;29;20361;-85
2022/03/04 02:27:26;;;;;;;62.53;22.03;;;1.20;99.90;;;;;;4821081;29;20093;-84
2022/03/04 02:29:52;;;;;;;71.60;22.73;;;;;;;;;;4822525;29;20086;-85
2022/03/04 02:32:18;;;;;;;93.23;23.90;;;0.50;99.90;;;;;;4821761;29;20054;-86
2022/03/04 02:34:44;;;;;;;48.47;20.77;;;0.40;99.90;;;;;;4822204;29;20457;-85
2022/03/04 02:37:10;;;;;;;50.77;21.60;;;;;;;;;;4821105;29;20138;-87
2022/03/04 02:39:36;;;;;;;101.97;24.33;;;0.50;99.90;;;;;;4806073;29;20058;-85
2022/03/04 02:42:02;;;;;;;71.47;23.03;;;0.90;99.90;;;;;;4806208;29;20083;-85
2022/03/04 02:44:28;;;;;;;181.00;30.53;;;2.60;99.90;;;;;;4821811;29;20768;-85
2022/03/04 02:46:54;;;;;;;116.13;26.13;;;1.30;99.90;;;;;;4805663;29;20089;-84
2022/03/04 02:49:19;;;;;;;56.23;22.47;;;1.00;99.90;;;;;;4821817;29;20085;-85
2022/03/04 02:51:45;;;;;;;82.70;23.90;;;2.50;99.90;;;;;;4820785;29;20081;-85
2022/03/04 02:54:11;;;;;;;65.87;23.77;;;;;;;;;;4821645;29;20050;-87
2022/03/04 02:56:37;;;;;;;52.83;22.93;;;1.60;99.90;;;;;;4808941;29;20058;-85
2022/03/04 02:59:03;;;;;;;50.40;22.47;;;-0.10;99.90;;;;;;4825657;29;20130;-85
2022/03/04 03:01:29;;;;;;;150.40;28.63;;;1.40;99.90;;;;;;4825082;29;20065;-85
2022/03/04 03:03:55;;;;;;;55.77;22.33;;;;;;;;;;4809124;29;20122;-85
2022/03/04 03:06:21;;;;;;;146.17;28.90;;;;;;;;;;4825190;29;20051;-84
2022/03/04 03:08:47;;;;;;;69.83;25.83;;;0.30;99.90;;;;;;4825303;29;20141;-85
2022/03/04 03:11:13;;;;;;;97.03;27.23;;;2.10;99.90;;;;;;4808834;29;20133;-87
2022/03/04 03:13:39;;;;;;;65.90;24.90;;;-0.90;99.90;;;;;;4808785;29;20058;-85
2022/03/04 03:16:05;;;;;;;55.27;22.10;;;2.80;99.90;;;;;;4824712;29;20050;-85
2022/03/04 03:18:31;;;;;;;75.43;24.33;;;3.00;99.90;;;;;;4825068;29;20325;-86
2022/03/04 03:20:56;;;;;;;65.87;23.87;;;2.80;99.90;;;;;;4809019;29;20054;-84
2022/03/04 03:23:22;;;;;;;275.80;37.10;;;1.70;99.90;;;;;;4823718;29;20077;-84
2022/03/04 03:25:48;;;;;;;71.13;23.97;;;2.10;99.90;;;;;;4824943;29;20204;-84
2022/03/04 03:28:13;;;;;;;242.77;40.47;;;0.00;99.90;;;;;;4824453;29;20061;-87
2022/03/04 03:30:39;;;;;;;70.47;23.63;;;-1.40;99.90;;;;;;4809406;29;20055;-84
2022/03/04 03:33:05;;;;;;;56.27;22.47;;;0.20;99.90;;;;;;4834474;29;20041;-84
2022/03/04 03:35:31;;;;;;;261.27;38.83;;;1.60;99.90;;;;;;4832130;29;20106;-87
2022/03/04 03:37:57;;;;;;;91.50;26.03;;;;;;;;;;4848471;29;20054;-85
2022/03/04 03:40:22;;;;;;;85.37;25.63;;;0.20;99.90;;;;;;4847974;29;20070;-86
2022/03/04 03:42:48;;;;;;;325.77;42.10;;;0.40;99.90;;;;;;4848099;29;20054;-85
2022/03/04 03:45:14;;;;;;;317.40;48.10;;;0.20;99.90;;;;;;4831847;29;20056;-87
2022/03/04 03:47:41;;;;;;;77.63;28.70;;;2.20;99.90;;;;;;4846879;29;20071;-84
2022/03/04 03:50:09;;;;;;;67.13;27.67;;;2.80;99.90;;;;;;4840586;29;20133;-83
2022/03/04 03:52:36;;;;;;;101.77;30.30;;;0.10;99.90;;;;;;4846265;29;20072;-85
2022/03/04 03:55:02;;;;;;;98.53;29.97;;;0.50;99.90;;;;;;4847619;29;20050;-85
2022/03/04 03:57:28;;;;;;;685.57;81.43;;;0.90;99.90;;;;;;4830967;29;20163;-87
2022/03/04 03:59:53;;;;;;;169.60;33.03;;;0.20;99.90;;;;;;4845716;29;20098;-88
2022/03/04 04:02:19;;;;;;;92.43;28.43;;;3.10;99.90;;;;;;4831316;29;20098;-90
2022/03/04 04:04:46;;;;;;;67.53;27.63;;;3.20;99.90;;;;;;4831453;29;20064;-87
2022/03/04 04:07:12;;;;;;;183.75;34.53;;;0.90;99.90;;;;;;4831503;29;20046;-84
2022/03/04 04:09:39;;;;;;;59.90;25.87;;;1.00;1.00;;;;;;4806942;29;20303;-86
2022/03/04 04:12:05;;;;;;;70.20;27.87;;;0.40;99.90;;;;;;4808859;29;20150;-85
2022/03/04 04:14:31;;;;;;;433.30;53.10;;;0.40;1.00;;;;;;4823553;29;20058;-85
2022/03/04 04:16:57;;;;;;;277.03;45.20;;;2.50;1.00;;;;;;4823395;29;20054;-85
2022/03/04 04:19:23;;;;;;;447.20;54.70;;;0.30;1.00;;;;;;4823720;29;20380;-84
2022/03/04 04:21:50;;;;;;;647.37;70.20;;;;;;;;;;4824050;29;20134;-85
2022/03/04 04:24:17;;;;;;;196.57;36.77;;;0.70;1.00;;;;;;4824123;29;20090;-85
2022/03/04 04:26:44;;;;;;;721.23;73.30;;;3.50;99.90;;;;;;4824036;29;20130;-85
2022/03/04 04:29:10;;;;;;;116.43;32.27;;;3.40;99.90;;;;;;4823878;29;20288;-85
2022/03/04 04:31:35;;;;;;;341.37;49.53;;;1.70;99.90;;;;;;4823791;29;20416;-85
2022/03/04 04:34:02;;;;;;;222.10;37.97;;;1.50;99.90;;;;;;4822643;29;20046;-85
2022/03/04 04:36:28;;;;;;;72.97;28.70;;;0.90;99.90;;;;;;4823911;29;20060;-85
2022/03/04 04:38:55;;;;;;;399.03;46.43;;;1.20;99.90;;;;;;4824231;29;20063;-85
2022/03/04 04:41:21;;;;;;;99.63;32.13;;;3.00;99.90;;;;;;4807524;29;20082;-88
2022/03/04 04:43:47;;;;;;;105.63;32.30;;;0.30;99.90;;;;;;4807707;29;20042;-85
2022/03/04 04:46:13;;;;;;;557.27;60.43;;;2.30;99.90;;;;;;4824063;29;20106;-85
2022/03/04 04:48:39;;;;;;;76.83;30.87;;;1.80;99.90;;;;;;4822569;29;20050;-85
2022/03/04 04:51:05;;;;;;;333.63;45.73;;;1.20;99.90;;;;;;4808070;29;20057;-85
2022/03/04 04:53:32;;;;;;;96.33;30.97;;;2.70;99.90;;;;;;4823359;29;20054;-85
2022/03/04 04:55:58;;;;;;;368.33;47.83;;;1.80;99.90;;;;;;4807770;29;20054;-85
2022/03/04 04:58:24;;;;;;;120.10;31.67;;;-0.70;99.90;;;;;;4823613;29;20058;-85
2022/03/04 05:00:53;;;;;;;90.60;30.87;;;1.50;99.90;;;;;;4823454;29;20508;-85
2022/03/04 05:03:23;;;;;;;281.10;42.60;;;3.50;99.90;;;;;;4823725;29;20050;-84
2022/03/04 05:05:49;;;;;;;573.43;60.17;;;0.10;99.90;;;;;;4823736;29;20050;-84
2022/03/04 05:08:16;;;;;;;204.97;34.57;;;2.40;99.90;;;;;;4823560;29;20050;-84
2022/03/04 05:10:42;;;;;;;362.37;48.37;;;1.50;99.90;;;;;;4807234;29;20046;-83
2022/03/04 05:13:08;;;;;;;71.50;31.53;;;4.30;99.90;;;;;;4822927;29;20058;-84
2022/03/04 05:15:36;;;;;;;246.07;38.63;;;3.50;99.90;;;;;;4806704;29;20088;-85
2022/03/04 05:18:02;;;;;;;96.33;31.23;;;1.80;99.90;;;;;;4788709;29;20063;-84
2022/03/04 05:20:28;;;;;;;171.67;35.37;;;0.50;99.90;;;;;;4804306;29;20141;-84
2022/03/04 05:22:54;;;;;;;334.93;43.93;;;;;;;;;;4822859;29;20478;-84
2022/03/04 05:25:20;;;;;;;124.53;34.43;;;1.30;99.90;;;;;;4823636;29;20103;-84
2022/03/04 05:27:45;;;;;;;406.57;49.23;;;1.00;99.90;;;;;;4822620;29;20054;-85
2022/03/04 05:30:12;;;;;;;309.13;43.80;;;3.80;99.90;;;;;;4823058;29;20055;-83
2022/03/04 05:32:38;;;;;;;73.57;29.97;;;1.40;99.90;;;;;;4822908;29;20089;-83
2022/03/04 05:35:06;;;;;;;253.77;40.47;;;1.30;99.90;;;;;;4822903;29;20042;-84
2022/03/04 05:37:31;;;;;;;70.53;29.17;;;3.30;99.90;;;;;;4823032;29;20392;-84
2022/03/04 05:39:58;;;;;;;58.40;28.77;;;1.20;99.90;;;;;;4823100;29;20046;-85
2022/03/04 05:42:24;;;;;;;66.77;28.97;;;3.30;99.90;;;;;;4806421;29;20050;-83
2022/03/04 05:44:49;;;;;;;139.97;34.87;;;2.90;99.90;;;;;;4822832;29;20058;-84
2022/03/04 05:47:15;;;;;;;105.97;31.07;;;1.20;99.90;;;;;;4823283;29;20409;-84
2022/03/04 05:49:41;;;;;;;87.13;31.67;;;;;;;;;;4821818;29;20137;-84
2022/03/04 05:52:08;;;;;;;76.87;30.27;;;3.70;99.90;;;;;;4806074;29;20094;-83
2022/03/04 05:54:33;;;;;;;71.57;30.43;;;1.80;99.90;;;;;;4822510;29;20061;-84
2022/03/04 05:56:59;;;;;;;68.80;28.70;;;2.90;99.90;;;;;;4823202;29;20054;-84
2022/03/04 05:59:25;;;;;;;125.70;31.17;;;3.70;99.90;;;;;;4806414;29;20050;-83
2022/03/04 06:01:51;;;;;;;94.23;34.70;;;2.00;99.90;;;;;;4822249;29;20050;-85
2022/03/04 06:04:17;;;;;;;93.13;32.13;;;0.90;99.90;;;;;;4821849;29;20090;-84
2022/03/04 06:06:43;;;;;;;68.90;30.77;;;;;;;;;;4822758;29;20053;-84
2022/03/04 06:09:10;;;;;;;140.93;34.60;;;1.40;99.90;;;;;;4823374;29;20057;-84
2022/03/04 06:11:35;;;;;;;62.57;31.53;;;2.70;99.90;;;;;;4806723;29;20144;-84
2022/03/04 06:14:01;;;;;;;65.33;31.17;;;1.70;99.90;;;;;;4822657;29;20142;-87
2022/03/04 06:16:27;;;;;;;62.03;30.03;;;1.20;99.90;;;;;;4822547;29;20352;-84
2022/03/04 06:18:54;;;;;;;128.90;34.10;;;1.20;99.90;;;;;;4804540;29;20077;-84
2022/03/04 06:21:20;;;;;;;63.03;31.97;;;2.90;99.90;;;;;;4806094;29;20464;-84
2022/03/04 06:23:45;;;;;;;65.00;29.63;;;0.50;99.90;;;;;;4805806;29;20051;-85
2022/03/04 06:26:11;;;;;;;77.83;32.73;;;1.20;99.90;;;;;;4822961;29;20042;-84
2022/03/04 06:28:37;;;;;;;74.00;31.10;;;;;;;;;;4822519;29;20129;-87
2022/03/04 06:31:04;;;;;;;65.60;30.00;;;;;;;;;;4805899;29;20067;-85
2022/03/04 06:33:37;;;;;;;56.53;30.30;;;1.40;99.90;;;;;;4822432;29;20114;-85
2022/03/04 06:36:06;;;;;;;127.22;33.05;;;1.20;99.90;;;;;;4806094;29;20508;-85
2022/03/04 06:38:34;;;;;;;107.03;33.07;;;0.50;99.90;;;;;;4822710;29;20058;-85
2022/03/04 06:41:00;;;;;;;77.05;29.63;;;3.30;99.90;;;;;;4806176;29;20085;-85
2022/03/04 06:43:26;;;;;;;88.10;32.13;;;3.30;99.90;;;;;;4822217;29;20065;-85
2022/03/04 06:45:55;;;;;;;66.90;31.67;;;;;;;;;;4822237;29;20514;-84
2022/03/04 06:48:23;;;;;;;86.50;31.73;;;2.50;99.90;;;;;;4806696;29;20061;-84
2022/03/04 06:50:53;;;;;;;68.63;30.40;;;3.20;99.90;;;;;;4805796;29;20500;-83
2022/03/04 06:53:19;;;;;;;54.13;27.47;;;1.10;99.90;;;;;;4806142;29;20058;-84
2022/03/04 06:55:46;;;;;;;119.37;32.00;;;1.40;99.90;;;;;;4805629;29;20054;-84
2022/03/04 06:58:12;;;;;;;85.93;30.63;;;;;;;;;;4791235;29;20516;-84
2022/03/04 07:00:39;;;;;;;97.77;31.13;;;1.60;99.90;;;;;;4805337;29;20057;-84
2022/03/04 07:03:04;;;;;;;75.30;31.17;;;2.80;99.90;;;;;;4806154;29;20086;-85
2022/03/04 07:05:30;;;;;;;56.77;30.13;;;3.60;99.90;;;;;;4822239;29;20093;-89
2022/03/04 07:07:57;;;;;;;107.63;30.53;;;3.40;99.90;;;;;;4822113;29;20054;-84
2022/03/04 07:10:23;;;;;;;70.03;30.10;;;4.30;99.90;;;;;;4822909;29;20054;-84
2022/03/04 07:12:49;;;;;;;51.33;28.70;;;1.10;99.90;;;;;;4822507;29;20196;-84
2022/03/04 07:15:15;;;;;;;143.50;33.07;;;2.50;99.90;;;;;;4822777;29;20042;-85
2022/03/04 07:17:41;;;;;;;58.03;30.27;;;2.00;99.90;;;;;;4821980;29;20055;-84
2022/03/04 07:20:08;;;;;;;58.63;29.03;;;3.60;99.90;;;;;;4806011;29;20510;-84
2022/03/04 07:22:35;;;;;;;107.73;30.27;;;2.40;99.90;;;;;;4821828;29;20110;-84
2022/03/04 07:25:03;;;;;;;66.25;30.75;;;1.80;99.90;;;;;;4805772;29;20062;-84
2022/03/04 07:27:29;;;;;;;;;;;2.10;99.90;;;;;;4822367;29;20619;-84
2022/03/04 07:29:55;;;;;;;86.73;30.20;;;1.90;99.90;;;;;;4820651;29;20034;-85
2022/03/04 07:32:22;;;;;;;55.87;30.37;;;1.40;99.90;;;;;;4821951;29;20050;-85
2022/03/04 07:34:48;;;;;;;60.85;29.40;;;;;;;;;;4805420;29;20135;-85
2022/03/04 07:37:14;;;;;;;58.63;30.33;;;2.20;99.90;;;;;;4805804;29;20058;-84
2022/03/04 07:39:39;;;;;;;54.97;30.40;;;0.50;99.90;;;;;;4820441;29;20403;-84
2022/03/04 07:42:05;;;;;;;112.10;33.33;;;4.80;99.90;;;;;;4824144;29;20058;-84
2022/03/04 07:44:31;;;;;;;51.87;28.50;;;2.30;99.90;;;;;;4824748;29;20097;-84
2022/03/04 07:46:57;;;;;;;49.17;28.43;;;;;;;;;;4808530;29;20133;-84
2022/03/04 07:49:23;;;;;;;66.17;27.37;;;2.30;99.90;;;;;;4808680;29;20057;-84
2022/03/04 07:51:48;;;;;;;46.37;26.30;;;2.00;99.90;;;;;;4808363;29;20058;-84
2022/03/04 07:54:14;;;;;;;54.00;28.63;;;3.90;99.90;;;;;;4808586;29;20185;-85
2022/03/04 07:56:40;;;;;;;48.73;27.67;;;3.90;99.90;;;;;;4824690;29;20152;-85
2022/03/04 07:59:07;;;;;;;54.73;26.70;;;4.20;99.90;;;;;;4824789;29;20054;-84
2022/03/04 08:01:33;;;;;;;47.20;26.77;;;2.20;99.90;;;;;;4824731;29;20126;-84
2022/03/04 08:03:58;;;;;;;45.30;26.50;;;2.40;99.90;;;;;;4808637;29;20062;-83
2022/03/04 08:06:24;;;;;;;51.95;27.48;;;2.50;99.90;;;;;;4808419;29;20050;-84
2022/03/04 08:08:49;;;;;;;46.77;26.70;;;4.20;99.90;;;;;;4824337;29;20080;-84
2022/03/04 08:11:15;;;;;;;49.50;26.83;;;1.60;99.90;;;;;;4824858;29;20050;-84
2022/03/04 08:13:41;;;;;;;44.15;26.42;;;4.70;99.90;;;;;;4824261;29;20130;-85
2022/03/04 08:16:07;;;;;;;43.97;25.40;;;5.00;99.90;;;;;;4808276;29;20201;-84
2022/03/04 08:18:33;;;;;;;45.80;25.35;;;;;;;;;;4824291;29;20066;-84
2022/03/04 08:20:59;;;;;;;42.40;24.88;;;2.90;99.90;;;;;;4807899;29;20406;-84
2022/03/04 08:23:25;;;;;;;43.13;25.27;;;3.30;99.90;;;;;;4824661;29;20054;-85
2022/03/04 08:25:51;;;;;;;50.88;24.90;;;5.50;99.90;;;;;;4808085;29;20047;-84
2022/03/04 08:28:17;;;;;;;47.53;26.30;;;4.60;99.90;;;;;;4824559;29;20401;-86
2022/03/04 08:30:43;;;;;;;43.50;25.87;;;3.90;99.90;;;;;;4822412;29;20620;-85
2022/03/04 08:33:09;;;;;;;45.42;25.08;;;4.60;99.90;;;;;;4824347;29;20054;-85
2022/03/04 08:35:35;;;;;;;44.23;25.60;;;4.40;99.90;;;;;;4808622;29;20401;-85
2022/03/04 08:38:02;;;;;;;43.53;25.40;;;3.50;99.90;;;;;;4808143;29;20049;-84
2022/03/04 08:40:28;;;;;;;43.77;23.63;;;3.90;99.90;;;;;;4808214;29;20452;-85
2022/03/04 08:42:54;;;;;;;42.83;25.30;;;4.00;99.90;;;;;;4808298;29;20074;-84
2022/03/04 08:45:19;;;;;;;41.80;24.40;;;3.80;99.90;;;;;;4823416;29;20057;-85
2022/03/04 08:47:46;;;;;;;38.53;23.47;;;3.80;99.90;;;;;;4792170;29;20062;-85
2022/03/04 08:50:15;;;;;;;41.10;23.83;;;3.60;99.90;;;;;;4823547;29;20442;-84
2022/03/04 08:52:41;;;;;;;38.85;23.90;;;4.10;99.90;;;;;;4823377;29;20089;-85
2022/03/04 08:55:13;;;;;;;41.80;24.30;;;4.10;99.90;;;;;;4808082;29;20086;-85
2022/03/04 08:57:47;;;;;;;41.45;23.70;;;4.20;99.80;;;;;;4807780;29;20090;-83
2022/03/04 09:00:14;;;;;;;39.93;23.70;;;4.30;96.60;;;;;;4823930;29;20127;-84
2022/03/04 09:02:40;;;;;;;41.45;23.30;;;4.40;96.20;;;;;;4807803;29;20066;-86
2022/03/04 09:05:07;;;;;;;40.30;23.75;;;5.80;93.90;;;;;;4823988;29;20062;-85
2022/03/04 09:07:33;;;;;;;37.38;23.65;;;4.40;80.20;;;;;;4792481;29;20112;-85
2022/03/04 09:09:59;;;;;;;37.47;23.05;;;6.60;95.10;;;;;;4824024;29;20505;-84
2022/03/04 09:12:24;;;;;;;45.03;23.90;;;6.80;90.40;;;;;;4824114;29;20436;-84
2022/03/04 09:14:50;;;;;;;40.17;22.83;;;6.40;90.40;;;;;;4792384;29;20081;-84
2022/03/04 09:17:16;;;;;;;33.85;20.63;;;6.80;75.70;;;;;;4822467;29;20115;-85
2022/03/04 09:19:42;;;;;;;36.60;22.10;;;5.90;73.70;;;;;;4823873;29;20543;-85
2022/03/04 09:22:08;;;;;;;42.63;22.17;;;7.50;61.50;;;;;;4824207;29;20134;-85
2022/03/04 09:24:34;;;;;;;33.97;19.90;;;7.30;46.20;;;;;;4824107;29;20120;-86
2022/03/04 09:27:00;;;;;;;40.88;21.55;;;5.50;40.30;;;;;;4792418;29;20067;-85
2022/03/04 09:29:26;;;;;;;38.10;22.20;;;8.20;40.60;;;;;;4823573;29;20054;-85
2022/03/04 09:31:52;;;;;;;38.63;21.77;;;4.80;36.20;;;;;;4823009;29;20063;-86
2022/03/04 09:34:18;;;;;;;40.95;22.80;;;5.80;32.10;;;;;;4823642;29;20199;-84
2022/03/04 09:36:44;;;;;;;36.55;21.92;;;6.10;35.30;;;;;;4806594;29;20046;-85
2022/03/04 09:39:10;;;;;;;34.72;20.80;;;7.10;30.90;;;;;;4822110;29;20046;-85
2022/03/04 09:41:40;;;;;;;33.80;20.85;;;8.30;33.20;;;;;;4823507;29;20059;-86
2022/03/04 09:44:07;;;;;;;37.30;20.55;;;8.10;3.90;;;;;;4822962;29;20054;-86
2022/03/04 09:46:33;;;;;;;32.77;19.77;;;7.00;10.20;;;;;;4806457;29;20500;-86
2022/03/04 09:48:59;;;;;;;33.47;18.88;;;6.10;4.20;;;;;;4823127;29;20046;-86
2022/03/04 09:51:25;;;;;;;34.20;20.27;;;7.60;4.60;;;;;;4823339;29;20069;-86
2022/03/04 09:53:52;;;;;;;30.67;19.02;;;7.10;1.00;;;;;;4821883;29;20050;-86
2022/03/04 09:56:19;;;;;;;30.92;19.13;;;8.10;1.00;;;;;;4807168;29;20058;-86
2022/03/04 09:58:46;;;;;;;31.58;18.25;;;8.00;1.00;;;;;;4806357;29;20132;-86
2022/03/04 10:01:14;;;;;;;32.15;18.77;;;8.00;1.00;;;;;;4823243;29;20061;-86
2022/03/04 10:03:39;;;;;;;29.65;17.85;;;8.70;1.00;;;;;;4821803;29;20345;-85
2022/03/04 10:06:06;;;;;;;28.63;17.00;;;9.20;1.00;;;;;;4823071;29;20073;-85
2022/03/04 10:08:43;;;;;;;32.13;18.45;;;10.70;1.00;;;;;;4823275;29;20061;-85
2022/03/04 10:11:12;;;;;;;29.65;17.02;;;9.80;1.00;;;;;;4822881;29;20503;-85
2022/03/04 10:13:40;;;;;;;29.67;18.08;;;9.10;1.00;;;;;;4821689;29;20046;-86
2022/03/04 10:16:06;;;;;;;32.28;18.42;;;9.00;1.00;;;;;;4806207;29;20054;-85
2022/03/04 10:18:32;;;;;;;33.75;19.85;;;8.60;1.00;;;;;;4791173;29;20058;-85
2022/03/04 10:20:57;;;;;;;32.67;19.73;;;8.40;1.00;;;;;;4806343;29;20054;-84
2022/03/04 10:23:26;;;;;;;32.65;19.90;;;9.40;1.00;;;;;;4806560;29;20115;-87
2022/03/04 10:25:53;;;;;;;31.42;17.95;;;8.10;1.00;;;;;;4806228;29;20054;-86
2022/03/04 10:28:24;;;;;;;29.58;18.08;;;8.40;1.00;;;;;;4822958;29;20556;-87
2022/03/04 10:30:52;;;;;;;32.20;18.15;;;7.20;1.00;;;;;;4805680;29;20101;-86
2022/03/04 10:33:24;;;;;;;33.03;18.27;;;7.00;1.00;;;;;;4806372;29;20057;-84
2022/03/04 10:36:11;;;;;;;29.20;18.08;;;7.30;1.00;;;;;;4822561;29;20054;-86
2022/03/04 10:38:39;;;;;;;30.40;17.80;;;6.70;1.00;;;;;;4821719;29;20058;-85
2022/03/04 10:41:25;;;;;;;31.73;18.92;;;6.30;1.00;;;;;;4806046;29;20086;-85
2022/03/04 10:43:51;;;;;;;37.80;19.13;;;6.50;1.00;;;;;;4805875;29;20069;-86
2022/03/04 10:46:17;;;;;;;33.10;19.30;;;6.10;1.00;;;;;;4822626;29;20093;-86
2022/03/04 10:48:54;;;;;;;31.83;19.35;;;6.10;1.00;;;;;;4822832;29;20137;-86
2022/03/04 10:51:40;;;;;;;31.48;19.00;;;7.00;1.00;;;;;;4822616;29;20085;-86
2022/03/04 10:54:17;;;;;;;32.13;17.92;;;6.70;1.00;;;;;;4823006;29;20050;-86
2022/03/04 10:56:54;;;;;;;30.95;17.30;;;6.80;1.00;;;;;;4823208;29;20053;-85
2022/03/04 10:59:20;;;;;;;30.90;16.65;;;7.40;1.00;;;;;;4806572;29;20487;-85
2022/03/04 11:01:50;;;;;;;31.92;16.60;;;9.10;1.00;;;;;;4822904;29;20050;-86
2022/03/04 11:04:20;;;;;;;30.67;16.55;;;8.10;1.00;;;;;;4823549;29;20428;-85
2022/03/04 11:06:48;;;;;;;27.73;16.15;;;8.70;1.00;;;;;;4822260;29;20114;-86
2022/03/04 11:09:24;;;;;;;27.45;15.85;;;9.40;1.00;;;;;;4821268;29;20445;-86
2022/03/04 11:11:51;;;;;;;23.80;14.45;;;11.70;1.00;;;;;;4807283;29;20126;-87
2022/03/04 11:14:19;;;;;;;27.92;16.08;;;12.00;1.00;;;;;;4803485;29;20150;-87
2022/03/04 11:16:47;;;;;;;26.50;14.27;;;14.60;1.00;;;;;;4809471;29;20350;-86
2022/03/04 11:19:14;;;;;;;25.27;14.20;;;13.50;1.00;;;;;;4825143;29;20058;-86
2022/03/04 11:21:40;;;;;;;25.10;14.52;;;14.70;1.00;;;;;;4825679;29;20061;-87
2022/03/04 11:24:06;;;;;;;25.23;14.27;;;14.90;1.00;;;;;;4825904;29;20428;-86
2022/03/04 11:26:32;;;;;;;23.27;13.45;;;15.60;1.00;;;;;;4810152;29;20058;-86
2022/03/04 11:29:00;;;;;;;23.52;13.55;;;16.60;1.00;;;;;;4825493;29;20526;-87
2022/03/04 11:31:28;;;;;;;21.52;13.93;;;16.00;1.00;;;;;;4809305;29;20388;-87
2022/03/04 11:34:01;;;;;;;23.20;13.50;;;16.60;1.00;;;;;;4824008;29;20149;-86
2022/03/04 11:36:32;;;;;;;27.10;12.70;;;16.60;1.00;;;;;;4824797;29;20128;-87
2022/03/04 11:39:03;;;;;;;22.95;13.85;;;15.90;1.00;;;;;;4809016;29;20499;-86
2022/03/04 11:41:30;;;;;;;23.13;13.02;;;16.50;1.00;;;;;;4809420;29;20141;-86
2022/03/04 11:44:20;;;;;;;21.38;13.57;;;15.50;1.00;;;;;;4809021;29;20069;-89
2022/03/04 11:47:02;;;;;;;22.70;13.40;;;14.90;1.00;;;;;;4809381;29;20252;-87
2022/03/04 11:49:30;;;;;;;20.42;11.57;;;15.00;1.00;;;;;;4824357;29;20129;-87
2022/03/04 11:52:20;;;;;;;23.88;13.35;;;13.70;1.00;;;;;;4824812;29;20069;-86
2022/03/04 11:54:49;;;;;;;21.90;13.32;;;13.20;1.00;;;;;;4808880;29;20054;-86
2022/03/04 11:57:27;;;;;;;24.40;14.13;;;12.20;1.00;;;;;;4824979;29;20496;-87
2022/03/04 12:00:09;;;;;;;20.63;13.52;;;11.50;1.00;;;;;;4824955;29;20288;-87
2022/03/04 12:02:44;;;;;;;29.25;13.68;;;10.70;1.00;;;;;;4826722;29;20062;-86
2022/03/04 12:05:19;;;;;;;22.00;13.80;;;10.40;1.00;;;;;;4824953;29;20434;-86
2022/03/04 12:07:53;;;;;;;25.73;14.07;;;9.90;1.00;;;;;;4809772;29;20051;-86
2022/03/04 12:10:47;;;;;;;24.40;14.32;;;9.60;1.00;;;;;;4810836;29;20387;-86
2022/03/04 12:13:25;;;;;;;25.05;14.75;;;8.70;1.00;;;;;;4816666;29;20057;-87
2022/03/04 12:15:57;;;;;;;26.48;14.52;;;8.70;1.00;;;;;;4816773;29;20050;-87
2022/03/04 12:18:35;;;;;;;25.40;15.00;;;8.80;1.00;;;;;;4833548;29;20057;-87
2022/03/04 12:21:13;;;;;;;25.08;14.38;;;9.10;1.00;;;;;;4839555;29;20038;-88
2022/03/04 12:23:42;;;;;;;24.92;13.65;;;11.20;1.00;;;;;;4831860;29;20121;-87
2022/03/04 12:26:25;;;;;;;22.73;14.02;;;11.50;1.00;;;;;;4847862;29;20042;-88
2022/03/04 12:29:03;;;;;;;25.38;13.98;;;11.10;1.00;;;;;;4831538;29;20049;-86
2022/03/04 12:31:33;;;;;;;23.65;14.02;;;10.30;1.00;;;;;;4831414;29;20074;-85
2022/03/04 12:33:59;;;;;;;23.90;13.88;;;9.90;1.00;;;;;;4829952;29;20057;-88
2022/03/04 12:36:28;;;;;;;23.13;13.80;;;9.30;1.00;;;;;;4828049;29;20034;-86
2022/03/04 12:38:59;;;;;;;21.00;12.18;;;10.80;1.00;;;;;;4847244;29;20042;-88
2022/03/04 12:41:29;;;;;;;19.48;12.35;;;9.30;1.00;;;;;;4846821;29;20042;-84
2022/03/04 12:44:04;;;;;;;21.05;12.55;;;8.70;1.00;;;;;;4847363;29;20049;-87